sensor_id;sensor_type;location;lat;lon;timestamp;pressure;altitude;pressure_sealevel;temperature;humidity
79376;BME280;68846;53.150;18.136;2024-02-21T00:06:09;101526.83;;;5.88;84.14
79376;BME280;68846;53.150;18.136;2024-02-21T00:08:36;101525.84;;;5.88;84.09
79376;BME280;68846;53.150;18.136;2024-02-21T00:11:55;101524.13;;;5.90;84.11
79376;BME280;68846;53.150;18.136;2024-02-21T00:18:58;101524.11;;;5.89;84.24
79376;BME280;68846;53.150;18.136;2024-02-21T00:26:48;101516.23;;;5.89;84.26
79376;BME280;68846;53.150;18.136;2024-02-21T00:30:06;101517.63;;;5.89;84.68
79376;BME280;68846;53.150;18.136;2024-02-21T00:32:33;101520.79;;;5.89;84.59
79376;BME280;68846;53.150;18.136;2024-02-21T00:40:26;101509.61;;;5.90;84.69
79376;BME280;68846;53.150;18.136;2024-02-21T00:46:36;101509.04;;;5.93;84.43
79376;BME280;68846;53.150;18.136;2024-02-21T00:54:02;101497.59;;;5.94;84.78
79376;BME280;68846;53.150;18.136;2024-02-21T01:05:35;101484.84;;;5.95;84.73
79376;BME280;68846;53.150;18.136;2024-02-21T01:08:02;101483.20;;;5.93;84.75
79376;BME280;68846;53.150;18.136;2024-02-21T01:18:44;101475.65;;;5.89;84.79
79376;BME280;68846;53.150;18.136;2024-02-21T01:21:11;101470.77;;;5.89;85.08
79376;BME280;68846;53.150;18.136;2024-02-21T01:23:37;101466.20;;;5.88;85.08
79376;BME280;68846;53.150;18.136;2024-02-21T01:26:04;101461.14;;;5.88;84.97
79376;BME280;68846;53.150;18.136;2024-02-21T01:28:32;101463.07;;;5.89;85.24
79376;BME280;68846;53.150;18.136;2024-02-21T01:30:59;101463.61;;;5.89;85.11
79376;BME280;68846;53.150;18.136;2024-02-21T01:33:27;101457.19;;;5.90;85.08
79376;BME280;68846;53.150;18.136;2024-02-21T01:35:54;101457.16;;;5.93;85.10
79376;BME280;68846;53.150;18.136;2024-02-21T01:38:21;101454.29;;;5.95;85.00
79376;BME280;68846;53.150;18.136;2024-02-21T01:40:48;101452.05;;;5.96;85.05
79376;BME280;68846;53.150;18.136;2024-02-21T01:43:19;101452.90;;;5.96;84.76
79376;BME280;68846;53.150;18.136;2024-02-21T01:45:50;101452.38;;;5.96;84.98
79376;BME280;68846;53.150;18.136;2024-02-21T01:48:18;101444.91;;;5.97;84.90
79376;BME280;68846;53.150;18.136;2024-02-21T01:50:45;101442.86;;;5.98;84.84
79376;BME280;68846;53.150;18.136;2024-02-21T01:53:17;101443.20;;;5.98;84.93
79376;BME280;68846;53.150;18.136;2024-02-21T01:55:45;101442.46;;;5.97;85.28
79376;BME280;68846;53.150;18.136;2024-02-21T01:58:16;101437.77;;;5.98;84.89
79376;BME280;68846;53.150;18.136;2024-02-21T02:00:47;101437.26;;;5.98;85.40
79376;BME280;68846;53.150;18.136;2024-02-21T02:03:15;101438.52;;;5.99;84.89
79376;BME280;68846;53.150;18.136;2024-02-21T02:05:46;101435.27;;;6.01;84.79
79376;BME280;68846;53.150;18.136;2024-02-21T02:08:16;101436.33;;;6.01;84.75
79376;BME280;68846;53.150;18.136;2024-02-21T02:10:44;101433.38;;;6.01;85.18
79376;BME280;68846;53.150;18.136;2024-02-21T02:13:12;101434.23;;;6.01;85.01
79376;BME280;68846;53.150;18.136;2024-02-21T02:15:44;101434.52;;;6.00;84.91
79376;BME280;68846;53.150;18.136;2024-02-21T02:18:12;101430.48;;;5.99;85.10
79376;BME280;68846;53.150;18.136;2024-02-21T02:20:39;101425.86;;;5.98;85.07
79376;BME280;68846;53.150;18.136;2024-02-21T02:23:10;101421.50;;;5.98;84.88
79376;BME280;68846;53.150;18.136;2024-02-21T02:25:38;101416.83;;;5.99;85.24
79376;BME280;68846;53.150;18.136;2024-02-21T02:28:06;101417.11;;;5.97;84.96
79376;BME280;68846;53.150;18.136;2024-02-21T02:30:35;101415.83;;;5.96;85.02
79376;BME280;68846;53.150;18.136;2024-02-21T02:33:06;101415.23;;;5.94;85.24
79376;BME280;68846;53.150;18.136;2024-02-21T02:35:33;101411.37;;;5.94;85.08
79376;BME280;68846;53.150;18.136;2024-02-21T02:38:04;101409.40;;;5.93;85.00
79376;BME280;68846;53.150;18.136;2024-02-21T02:40:33;101413.46;;;5.94;85.31
79376;BME280;68846;53.150;18.136;2024-02-21T02:43:01;101411.96;;;5.95;85.13
79376;BME280;68846;53.150;18.136;2024-02-21T02:45:28;101405.88;;;5.96;85.30
79376;BME280;68846;53.150;18.136;2024-02-21T02:47:56;101406.25;;;5.97;84.90
79376;BME280;68846;53.150;18.136;2024-02-21T02:50:27;101401.35;;;5.97;85.18
79376;BME280;68846;53.150;18.136;2024-02-21T02:52:55;101395.63;;;5.98;85.08
79376;BME280;68846;53.150;18.136;2024-02-21T02:55:22;101392.70;;;5.99;84.97
79376;BME280;68846;53.150;18.136;2024-02-21T02:57:49;101392.16;;;5.98;85.05
79376;BME280;68846;53.150;18.136;2024-02-21T03:00:17;101388.45;;;5.98;84.87
79376;BME280;68846;53.150;18.136;2024-02-21T03:02:46;101383.77;;;5.99;85.19
79376;BME280;68846;53.150;18.136;2024-02-21T03:05:20;101380.45;;;5.99;85.24
79376;BME280;68846;53.150;18.136;2024-02-21T03:07:48;101379.58;;;5.99;85.10
79376;BME280;68846;53.150;18.136;2024-02-21T03:10:16;101380.63;;;5.99;85.27
79376;BME280;68846;53.150;18.136;2024-02-21T03:12:43;101379.80;;;6.00;85.39
79376;BME280;68846;53.150;18.136;2024-02-21T03:15:11;101377.86;;;6.00;85.03
79376;BME280;68846;53.150;18.136;2024-02-21T03:17:39;101373.52;;;6.00;85.05
79376;BME280;68846;53.150;18.136;2024-02-21T03:20:07;101375.45;;;6.00;85.00
79376;BME280;68846;53.150;18.136;2024-02-21T03:22:37;101376.54;;;6.01;85.03
79376;BME280;68846;53.150;18.136;2024-02-21T03:25:05;101371.77;;;6.00;85.19
79376;BME280;68846;53.150;18.136;2024-02-21T03:27:33;101373.10;;;5.99;85.09
79376;BME280;68846;53.150;18.136;2024-02-21T03:30:00;101372.54;;;5.97;85.45
79376;BME280;68846;53.150;18.136;2024-02-21T03:32:27;101369.17;;;5.97;85.41
79376;BME280;68846;53.150;18.136;2024-02-21T03:34:56;101366.65;;;5.95;85.26
79376;BME280;68846;53.150;18.136;2024-02-21T03:37:23;101367.14;;;5.94;85.35
79376;BME280;68846;53.150;18.136;2024-02-21T03:39:50;101362.92;;;5.94;85.50
79376;BME280;68846;53.150;18.136;2024-02-21T03:42:18;101362.70;;;5.93;85.41
79376;BME280;68846;53.150;18.136;2024-02-21T03:44:45;101359.95;;;5.93;85.45
79376;BME280;68846;53.150;18.136;2024-02-21T03:47:12;101359.33;;;5.95;85.23
79376;BME280;68846;53.150;18.136;2024-02-21T03:49:39;101356.17;;;5.95;85.60
79376;BME280;68846;53.150;18.136;2024-02-21T03:52:06;101353.59;;;5.96;85.54
79376;BME280;68846;53.150;18.136;2024-02-21T03:54:33;101349.73;;;5.96;85.46
79376;BME280;68846;53.150;18.136;2024-02-21T03:57:00;101348.21;;;5.97;85.41
79376;BME280;68846;53.150;18.136;2024-02-21T03:59:27;101345.96;;;5.98;85.56
79376;BME280;68846;53.150;18.136;2024-02-21T04:01:54;101346.33;;;5.98;85.51
79376;BME280;68846;53.150;18.136;2024-02-21T04:04:22;101346.52;;;5.98;85.88
79376;BME280;68846;53.150;18.136;2024-02-21T04:06:49;101342.84;;;5.98;85.59
79376;BME280;68846;53.150;18.136;2024-02-21T04:09:17;101343.50;;;5.97;85.62
79376;BME280;68846;53.150;18.136;2024-02-21T04:11:45;101341.57;;;5.97;85.75
79376;BME280;68846;53.150;18.136;2024-02-21T04:14:13;101342.59;;;5.96;85.68
79376;BME280;68846;53.150;18.136;2024-02-21T04:16:40;101337.53;;;5.96;85.78
79376;BME280;68846;53.150;18.136;2024-02-21T04:19:07;101333.66;;;5.96;85.85
79376;BME280;68846;53.150;18.136;2024-02-21T04:21:35;101332.46;;;5.96;86.00
79376;BME280;68846;53.150;18.136;2024-02-21T04:24:02;101332.48;;;5.97;85.90
79376;BME280;68846;53.150;18.136;2024-02-21T04:26:32;101322.18;;;5.97;85.95
79376;BME280;68846;53.150;18.136;2024-02-21T04:28:59;101319.88;;;5.97;86.15
79376;BME280;68846;53.150;18.136;2024-02-21T04:31:26;101320.23;;;5.96;86.19
79376;BME280;68846;53.150;18.136;2024-02-21T04:33:53;101311.65;;;5.96;85.97
79376;BME280;68846;53.150;18.136;2024-02-21T04:36:20;101310.92;;;5.95;86.02
79376;BME280;68846;53.150;18.136;2024-02-21T04:38:47;101306.39;;;5.96;86.11
79376;BME280;68846;53.150;18.136;2024-02-21T04:41:15;101306.58;;;5.96;86.18
79376;BME280;68846;53.150;18.136;2024-02-21T04:43:43;101300.11;;;5.96;86.18
79376;BME280;68846;53.150;18.136;2024-02-21T04:46:11;101301.14;;;5.95;86.30
79376;BME280;68846;53.150;18.136;2024-02-21T04:48:38;101296.70;;;5.94;86.02
79376;BME280;68846;53.150;18.136;2024-02-21T04:51:05;101297.74;;;5.94;86.23
79376;BME280;68846;53.150;18.136;2024-02-21T04:53:32;101291.90;;;5.92;86.07
79376;BME280;68846;53.150;18.136;2024-02-21T04:55:59;101291.01;;;5.92;86.41
79376;BME280;68846;53.150;18.136;2024-02-21T04:58:27;101289.91;;;5.91;86.14
79376;BME280;68846;53.150;18.136;2024-02-21T05:00:54;101286.70;;;5.89;86.38
79376;BME280;68846;53.150;18.136;2024-02-21T05:03:22;101284.94;;;5.88;86.48
79376;BME280;68846;53.150;18.136;2024-02-21T05:05:49;101279.13;;;5.88;86.64
79376;BME280;68846;53.150;18.136;2024-02-21T05:08:16;101282.27;;;5.88;86.66
79376;BME280;68846;53.150;18.136;2024-02-21T05:10:43;101278.95;;;5.88;86.47
79376;BME280;68846;53.150;18.136;2024-02-21T05:13:10;101274.91;;;5.87;86.44
79376;BME280;68846;53.150;18.136;2024-02-21T05:15:38;101274.60;;;5.88;86.66
79376;BME280;68846;53.150;18.136;2024-02-21T05:18:05;101265.86;;;5.88;86.31
79376;BME280;68846;53.150;18.136;2024-02-21T05:20:32;101265.55;;;5.89;86.72
79376;BME280;68846;53.150;18.136;2024-02-21T05:22:59;101260.86;;;5.90;86.67
79376;BME280;68846;53.150;18.136;2024-02-21T05:25:26;101260.54;;;5.90;86.51
79376;BME280;68846;53.150;18.136;2024-02-21T05:27:53;101260.77;;;5.92;86.42
79376;BME280;68846;53.150;18.136;2024-02-21T05:30:22;101255.48;;;5.91;86.50
79376;BME280;68846;53.150;18.136;2024-02-21T05:32:49;101246.61;;;5.92;86.45
79376;BME280;68846;53.150;18.136;2024-02-21T05:35:16;101245.63;;;5.93;86.60
79376;BME280;68846;53.150;18.136;2024-02-21T05:37:43;101236.89;;;5.94;86.51
79376;BME280;68846;53.150;18.136;2024-02-21T05:40:13;101237.45;;;5.94;86.60
79376;BME280;68846;53.150;18.136;2024-02-21T05:42:41;101242.69;;;5.94;86.57
79376;BME280;68846;53.150;18.136;2024-02-21T05:45:10;101242.73;;;5.95;86.65
79376;BME280;68846;53.150;18.136;2024-02-21T05:47:37;101244.84;;;5.95;86.78
79376;BME280;68846;53.150;18.136;2024-02-21T05:50:05;101239.61;;;5.96;86.80
79376;BME280;68846;53.150;18.136;2024-02-21T05:52:32;101239.57;;;5.95;86.60
79376;BME280;68846;53.150;18.136;2024-02-21T05:55:00;101233.82;;;5.95;86.88
79376;BME280;68846;53.150;18.136;2024-02-21T05:57:27;101233.29;;;5.95;86.71
79376;BME280;68846;53.150;18.136;2024-02-21T05:59:54;101231.19;;;5.95;86.65
79376;BME280;68846;53.150;18.136;2024-02-21T06:02:21;101227.38;;;5.92;86.85
79376;BME280;68846;53.150;18.136;2024-02-21T06:04:48;101222.42;;;5.90;86.78
79376;BME280;68846;53.150;18.136;2024-02-21T06:07:17;101218.95;;;5.91;86.82
79376;BME280;68846;53.150;18.136;2024-02-21T06:09:44;101219.77;;;5.94;86.60
79376;BME280;68846;53.150;18.136;2024-02-21T06:12:11;101218.82;;;5.96;86.90
79376;BME280;68846;53.150;18.136;2024-02-21T06:14:38;101218.40;;;5.99;86.83
79376;BME280;68846;53.150;18.136;2024-02-21T06:17:05;101220.14;;;6.03;86.68
79376;BME280;68846;53.150;18.136;2024-02-21T06:19:33;101217.19;;;6.08;86.50
79376;BME280;68846;53.150;18.136;2024-02-21T06:22:00;101215.29;;;6.14;86.47
79376;BME280;68846;53.150;18.136;2024-02-21T06:24:27;101212.73;;;6.20;86.30
79376;BME280;68846;53.150;18.136;2024-02-21T06:26:54;101212.21;;;6.25;86.47
79376;BME280;68846;53.150;18.136;2024-02-21T06:29:21;101212.25;;;6.31;86.16
79376;BME280;68846;53.150;18.136;2024-02-21T06:31:48;101209.00;;;6.33;86.10
79376;BME280;68846;53.150;18.136;2024-02-21T06:34:15;101213.54;;;6.33;86.30
79376;BME280;68846;53.150;18.136;2024-02-21T06:36:45;101214.91;;;6.32;86.14
79376;BME280;68846;53.150;18.136;2024-02-21T06:39:12;101207.66;;;6.30;86.17
79376;BME280;68846;53.150;18.136;2024-02-21T06:41:39;101202.63;;;6.26;86.47
79376;BME280;68846;53.150;18.136;2024-02-21T06:44:07;101200.83;;;6.25;85.99
79376;BME280;68846;53.150;18.136;2024-02-21T06:46:34;101205.02;;;6.24;86.18
79376;BME280;68846;53.150;18.136;2024-02-21T06:49:02;101196.83;;;6.25;86.11
79376;BME280;68846;53.150;18.136;2024-02-21T06:51:32;101193.16;;;6.25;86.26
79376;BME280;68846;53.150;18.136;2024-02-21T06:54:00;101192.52;;;6.27;85.92
79376;BME280;68846;53.150;18.136;2024-02-21T06:56:27;101192.66;;;6.26;85.97
79376;BME280;68846;53.150;18.136;2024-02-21T06:58:57;101192.31;;;6.26;86.25
79376;BME280;68846;53.150;18.136;2024-02-21T07:01:26;101191.42;;;6.26;86.12
79376;BME280;68846;53.150;18.136;2024-02-21T07:03:53;101189.71;;;6.27;86.05
79376;BME280;68846;53.150;18.136;2024-02-21T07:06:20;101191.55;;;6.30;86.23
79376;BME280;68846;53.150;18.136;2024-02-21T07:08:47;101189.86;;;6.31;86.17
79376;BME280;68846;53.150;18.136;2024-02-21T07:11:14;101183.45;;;6.32;86.11
79376;BME280;68846;53.150;18.136;2024-02-21T07:13:41;101179.96;;;6.33;86.20
79376;BME280;68846;53.150;18.136;2024-02-21T07:16:08;101172.02;;;6.36;86.07
79376;BME280;68846;53.150;18.136;2024-02-21T07:18:36;101169.77;;;6.36;86.07
79376;BME280;68846;53.150;18.136;2024-02-21T07:21:03;101162.58;;;6.36;85.79
79376;BME280;68846;53.150;18.136;2024-02-21T07:23:31;101157.19;;;6.37;85.87
79376;BME280;68846;53.150;18.136;2024-02-21T07:25:58;101156.02;;;6.38;86.02
79376;BME280;68846;53.150;18.136;2024-02-21T07:28:25;101155.38;;;6.40;86.04
79376;BME280;68846;53.150;18.136;2024-02-21T07:30:52;101155.38;;;6.40;85.82
79376;BME280;68846;53.150;18.136;2024-02-21T07:33:19;101156.64;;;6.41;85.96
79376;BME280;68846;53.150;18.136;2024-02-21T07:35:46;101158.11;;;6.43;85.98
79376;BME280;68846;53.150;18.136;2024-02-21T07:38:13;101159.20;;;6.44;85.56
79376;BME280;68846;53.150;18.136;2024-02-21T07:41:07;101155.38;;;6.45;85.86
79376;BME280;68846;53.150;18.136;2024-02-21T07:43:34;101147.69;;;6.46;85.97
79376;BME280;68846;53.150;18.136;2024-02-21T07:50:58;101150.66;;;6.51;85.73
79376;BME280;68846;53.150;18.136;2024-02-21T07:53:25;101143.00;;;6.52;85.81
79376;BME280;68846;53.150;18.136;2024-02-21T07:55:52;101143.15;;;6.51;85.52
79376;BME280;68846;53.150;18.136;2024-02-21T07:58:23;101144.64;;;6.54;85.75
79376;BME280;68846;53.150;18.136;2024-02-21T08:00:51;101144.90;;;6.56;85.78
79376;BME280;68846;53.150;18.136;2024-02-21T08:08:14;101135.27;;;6.55;85.97
79376;BME280;68846;53.150;18.136;2024-02-21T08:10:46;101130.18;;;6.55;86.17
79376;BME280;68846;53.150;18.136;2024-02-21T08:13:13;101127.70;;;6.54;86.14
79376;BME280;68846;53.150;18.136;2024-02-21T08:15:42;101123.41;;;6.52;86.12
79376;BME280;68846;53.150;18.136;2024-02-21T08:18:09;101117.77;;;6.51;86.53
79376;BME280;68846;53.150;18.136;2024-02-21T08:20:37;101116.73;;;6.51;86.44
79376;BME280;68846;53.150;18.136;2024-02-21T08:23:04;101111.84;;;6.51;86.05
79376;BME280;68846;53.150;18.136;2024-02-21T08:30:27;101104.61;;;6.54;86.74
79376;BME280;68846;53.150;18.136;2024-02-21T08:32:54;101100.43;;;6.55;86.62
79376;BME280;68846;53.150;18.136;2024-02-21T08:35:22;101094.15;;;6.56;86.57
79376;BME280;68846;53.150;18.136;2024-02-21T08:37:52;101094.33;;;6.56;86.57
79376;BME280;68846;53.150;18.136;2024-02-21T08:40:19;101095.48;;;6.59;86.55
79376;BME280;68846;53.150;18.136;2024-02-21T08:42:48;101100.63;;;6.61;86.44
79376;BME280;68846;53.150;18.136;2024-02-21T08:45:16;101106.61;;;6.62;86.63
79376;BME280;68846;53.150;18.136;2024-02-21T08:47:43;101109.25;;;6.62;86.56
79376;BME280;68846;53.150;18.136;2024-02-21T08:50:11;101112.42;;;6.63;86.41
79376;BME280;68846;53.150;18.136;2024-02-21T08:52:38;101104.08;;;6.65;86.54
79376;BME280;68846;53.150;18.136;2024-02-21T08:55:06;101101.55;;;6.68;86.33
79376;BME280;68846;53.150;18.136;2024-02-21T08:58:00;101099.65;;;6.68;86.54
79376;BME280;68846;53.150;18.136;2024-02-21T09:00:31;101099.11;;;6.68;86.29
79376;BME280;68846;53.150;18.136;2024-02-21T09:02:58;101101.88;;;6.67;86.30
79376;BME280;68846;53.150;18.136;2024-02-21T09:05:26;101096.59;;;6.65;86.57
79376;BME280;68846;53.150;18.136;2024-02-21T09:07:53;101092.70;;;6.65;86.27
79376;BME280;68846;53.150;18.136;2024-02-21T09:10:21;101088.36;;;6.65;86.30
79376;BME280;68846;53.150;18.136;2024-02-21T09:12:48;101087.34;;;6.66;86.15
79376;BME280;68846;53.150;18.136;2024-02-21T09:15:15;101090.53;;;6.68;86.48
79376;BME280;68846;53.150;18.136;2024-02-21T09:17:42;101090.34;;;6.78;86.54
79376;BME280;68846;53.150;18.136;2024-02-21T09:20:09;101085.63;;;6.89;86.33
79376;BME280;68846;53.150;18.136;2024-02-21T09:26:46;101073.23;;;7.19;85.80
79376;BME280;68846;53.150;18.136;2024-02-21T09:29:39;101070.48;;;7.20;85.54
79376;BME280;68846;53.150;18.136;2024-02-21T09:32:07;101070.86;;;7.20;85.02
79376;BME280;68846;53.150;18.136;2024-02-21T09:34:34;101073.20;;;7.23;85.26
79376;BME280;68846;53.150;18.136;2024-02-21T09:37:01;101075.01;;;7.25;85.42
79376;BME280;68846;53.150;18.136;2024-02-21T09:39:29;101073.20;;;7.29;85.04
79376;BME280;68846;53.150;18.136;2024-02-21T09:42:05;101072.14;;;7.34;85.23
79376;BME280;68846;53.150;18.136;2024-02-21T09:44:37;101072.67;;;7.41;84.70
79376;BME280;68846;53.150;18.136;2024-02-21T09:47:14;101067.50;;;7.37;84.33
79376;BME280;68846;53.150;18.136;2024-02-21T09:49:44;101063.04;;;7.29;84.56
79376;BME280;68846;53.150;18.136;2024-02-21T09:52:13;101062.91;;;7.24;84.98
79376;BME280;68846;53.150;18.136;2024-02-21T09:54:42;101068.13;;;7.23;84.73
79376;BME280;68846;53.150;18.136;2024-02-21T09:57:11;101060.09;;;7.18;85.02
79376;BME280;68846;53.150;18.136;2024-02-21T09:59:39;101053.15;;;7.14;84.99
79376;BME280;68846;53.150;18.136;2024-02-21T10:02:09;101052.19;;;7.12;85.37
79376;BME280;68846;53.150;18.136;2024-02-21T10:04:36;101053.01;;;7.10;85.21
79376;BME280;68846;53.150;18.136;2024-02-21T10:07:03;101059.45;;;7.09;85.58
79376;BME280;68846;53.150;18.136;2024-02-21T10:09:31;101057.70;;;7.08;85.55
79376;BME280;68846;53.150;18.136;2024-02-21T10:12:11;101062.41;;;7.08;85.86
79376;BME280;68846;53.150;18.136;2024-02-21T10:14:39;101059.91;;;7.07;85.92
79376;BME280;68846;53.150;18.136;2024-02-21T10:17:06;101062.88;;;7.07;85.70
79376;BME280;68846;53.150;18.136;2024-02-21T10:19:36;101062.70;;;7.06;85.90
79376;BME280;68846;53.150;18.136;2024-02-21T10:22:08;101064.10;;;7.07;86.03
79376;BME280;68846;53.150;18.136;2024-02-21T10:24:36;101052.54;;;7.06;86.25
79376;BME280;68846;53.150;18.136;2024-02-21T10:27:09;101051.13;;;7.06;85.66
79376;BME280;68846;53.150;18.136;2024-02-21T10:29:38;101049.41;;;7.07;85.82
79376;BME280;68846;53.150;18.136;2024-02-21T10:32:10;101047.02;;;7.08;85.98
79376;BME280;68846;53.150;18.136;2024-02-21T10:34:40;101046.27;;;7.07;85.99
79376;BME280;68846;53.150;18.136;2024-02-21T10:37:09;101038.84;;;7.05;85.85
79376;BME280;68846;53.150;18.136;2024-02-21T10:39:41;101044.43;;;7.05;86.21
79376;BME280;68846;53.150;18.136;2024-02-21T10:47:10;101027.55;;;7.02;86.74
79376;BME280;68846;53.150;18.136;2024-02-21T10:49:41;101022.68;;;7.03;86.32
79376;BME280;68846;53.150;18.136;2024-02-21T10:52:19;101020.77;;;7.04;86.62
79376;BME280;68846;53.150;18.136;2024-02-21T10:57:23;101018.04;;;7.07;86.83
79376;BME280;68846;53.150;18.136;2024-02-21T10:59:53;101008.64;;;7.08;86.59
79376;BME280;68846;53.150;18.136;2024-02-21T11:02:47;101006.26;;;7.10;86.45
79376;BME280;68846;53.150;18.136;2024-02-21T11:05:15;100999.66;;;7.13;86.44
79376;BME280;68846;53.150;18.136;2024-02-21T11:07:42;100993.96;;;7.15;86.55
79376;BME280;68846;53.150;18.136;2024-02-21T11:10:26;100988.59;;;7.17;86.66
79376;BME280;68846;53.150;18.136;2024-02-21T11:13:15;100987.09;;;7.19;86.41
79376;BME280;68846;53.150;18.136;2024-02-21T11:15:42;100985.61;;;7.23;86.61
79376;BME280;68846;53.150;18.136;2024-02-21T11:23:56;100967.06;;;7.30;86.52
79376;BME280;68846;53.150;18.136;2024-02-21T11:26:28;100962.61;;;7.33;86.39
79376;BME280;68846;53.150;18.136;2024-02-21T11:29:00;100957.73;;;7.34;86.30
79376;BME280;68846;53.150;18.136;2024-02-21T11:31:41;100949.89;;;7.36;86.63
79376;BME280;68846;53.150;18.136;2024-02-21T11:34:10;100947.30;;;7.37;86.44
79376;BME280;68846;53.150;18.136;2024-02-21T11:37:14;100939.48;;;7.40;86.49
79376;BME280;68846;53.150;18.136;2024-02-21T11:39:48;100938.69;;;7.43;86.47
79376;BME280;68846;53.150;18.136;2024-02-21T11:42:15;100937.23;;;7.47;86.33
79376;BME280;68846;53.150;18.136;2024-02-21T11:44:42;100935.35;;;7.49;86.34
79376;BME280;68846;53.150;18.136;2024-02-21T11:47:10;100929.36;;;7.47;86.20
79376;BME280;68846;53.150;18.136;2024-02-21T11:49:43;100930.54;;;7.45;86.23
79376;BME280;68846;53.150;18.136;2024-02-21T11:52:12;100933.66;;;7.44;86.25
79376;BME280;68846;53.150;18.136;2024-02-21T11:54:42;100933.82;;;7.44;86.21
79376;BME280;68846;53.150;18.136;2024-02-21T11:57:10;100926.63;;;7.43;86.25
79376;BME280;68846;53.150;18.136;2024-02-21T11:59:42;100927.35;;;7.44;86.31
79376;BME280;68846;53.150;18.136;2024-02-21T12:02:10;100926.14;;;7.45;86.17
79376;BME280;68846;53.150;18.136;2024-02-21T12:04:38;100935.64;;;7.46;86.03
79376;BME280;68846;53.150;18.136;2024-02-21T12:07:05;100931.09;;;7.46;86.01
79376;BME280;68846;53.150;18.136;2024-02-21T12:09:34;100929.90;;;7.48;86.15
79376;BME280;68846;53.150;18.136;2024-02-21T12:12:05;100912.19;;;7.48;85.93
79376;BME280;68846;53.150;18.136;2024-02-21T12:14:34;100915.15;;;7.47;86.04
79376;BME280;68846;53.150;18.136;2024-02-21T12:17:02;100905.52;;;7.47;86.07
79376;BME280;68846;53.150;18.136;2024-02-21T12:19:33;100902.19;;;7.47;86.09
79376;BME280;68846;53.150;18.136;2024-02-21T12:22:00;100895.54;;;7.48;86.14
79376;BME280;68846;53.150;18.136;2024-02-21T12:24:28;100895.20;;;7.48;86.02
79376;BME280;68846;53.150;18.136;2024-02-21T12:26:56;100902.05;;;7.49;86.25
79376;BME280;68846;53.150;18.136;2024-02-21T12:29:25;100900.67;;;7.49;86.06
79376;BME280;68846;53.150;18.136;2024-02-21T12:31:52;100898.63;;;7.51;86.06
79376;BME280;68846;53.150;18.136;2024-02-21T12:34:23;100898.65;;;7.52;86.15
79376;BME280;68846;53.150;18.136;2024-02-21T12:36:51;100906.73;;;7.53;86.03
79376;BME280;68846;53.150;18.136;2024-02-21T12:39:18;100905.16;;;7.54;85.80
79376;BME280;68846;53.150;18.136;2024-02-21T12:41:45;100906.77;;;7.55;85.99
79376;BME280;68846;53.150;18.136;2024-02-21T12:44:13;100903.80;;;7.56;85.86
79376;BME280;68846;53.150;18.136;2024-02-21T12:46:40;100898.02;;;7.55;85.97
79376;BME280;68846;53.150;18.136;2024-02-21T12:49:07;100894.89;;;7.56;85.94
79376;BME280;68846;53.150;18.136;2024-02-21T12:51:35;100894.39;;;7.57;85.76
79376;BME280;68846;53.150;18.136;2024-02-21T12:54:02;100901.40;;;7.57;86.00
79376;BME280;68846;53.150;18.136;2024-02-21T12:56:32;100896.10;;;7.56;86.19
79376;BME280;68846;53.150;18.136;2024-02-21T12:58:59;100901.22;;;7.56;85.89
79376;BME280;68846;53.150;18.136;2024-02-21T13:01:26;100895.63;;;7.57;85.63
79376;BME280;68846;53.150;18.136;2024-02-21T13:03:54;100891.59;;;7.56;85.91
79376;BME280;68846;53.150;18.136;2024-02-21T13:06:23;100891.72;;;7.56;86.04
79376;BME280;68846;53.150;18.136;2024-02-21T13:08:51;100887.87;;;7.56;86.36
79376;BME280;68846;53.150;18.136;2024-02-21T13:11:19;100888.98;;;7.57;86.27
79376;BME280;68846;53.150;18.136;2024-02-21T13:13:46;100881.94;;;7.57;86.15
79376;BME280;68846;53.150;18.136;2024-02-21T13:16:13;100878.65;;;7.58;86.38
79376;BME280;68846;53.150;18.136;2024-02-21T13:18:40;100876.03;;;7.59;86.27
79376;BME280;68846;53.150;18.136;2024-02-21T13:21:09;100872.73;;;7.60;86.43
79376;BME280;68846;53.150;18.136;2024-02-21T13:23:37;100867.11;;;7.60;86.40
79376;BME280;68846;53.150;18.136;2024-02-21T13:26:04;100867.29;;;7.60;86.41
79376;BME280;68846;53.150;18.136;2024-02-21T13:28:31;100872.75;;;7.61;86.70
79376;BME280;68846;53.150;18.136;2024-02-21T13:30:58;100874.36;;;7.62;86.49
79376;BME280;68846;53.150;18.136;2024-02-21T13:33:25;100871.59;;;7.63;86.61
79376;BME280;68846;53.150;18.136;2024-02-21T13:35:52;100870.55;;;7.63;86.59
79376;BME280;68846;53.150;18.136;2024-02-21T13:38:46;100865.64;;;7.63;86.39
79376;BME280;68846;53.150;18.136;2024-02-21T13:50:32;100853.30;;;7.61;86.82
79376;BME280;68846;53.150;18.136;2024-02-21T13:52:59;100854.17;;;7.61;86.80
79376;BME280;68846;53.150;18.136;2024-02-21T13:56:16;100844.52;;;7.60;86.70
79376;BME280;68846;53.150;18.136;2024-02-21T13:58:44;100839.09;;;7.61;86.47
79376;BME280;68846;53.150;18.136;2024-02-21T14:01:11;100833.48;;;7.61;86.61
79376;BME280;68846;53.150;18.136;2024-02-21T14:03:38;100835.08;;;7.61;86.92
79376;BME280;68846;53.150;18.136;2024-02-21T14:06:05;100835.45;;;7.61;86.91
79376;BME280;68846;53.150;18.136;2024-02-21T14:08:32;100832.15;;;7.62;87.00
79376;BME280;68846;53.150;18.136;2024-02-21T14:22:13;100826.78;;;7.66;87.07
79376;BME280;68846;53.150;18.136;2024-02-21T14:24:40;100822.39;;;7.65;87.04
79376;BME280;68846;53.150;18.136;2024-02-21T14:27:59;100823.10;;;7.66;87.06
79376;BME280;68846;53.150;18.136;2024-02-21T14:30:52;100818.38;;;7.66;86.81
79376;BME280;68846;53.150;18.136;2024-02-21T14:34:14;100818.71;;;7.66;86.84
79376;BME280;68846;53.150;18.136;2024-02-21T14:42:03;100815.55;;;7.65;86.88
79376;BME280;68846;53.150;18.136;2024-02-21T14:44:30;100816.08;;;7.66;86.86
79376;BME280;68846;53.150;18.136;2024-02-21T14:46:57;100802.77;;;7.66;86.92